sensor_id;sensor_type;location;lat;lon;timestamp;P1;durP1;ratioP1;P2;durP2;ratioP2
8735;SDS011;4404;49.308;12.178;2023-04-26T07:20:32;0.80;;;0.80;;
8735;SDS011;4404;49.308;12.178;2023-04-26T07:22:34;0.80;;;0.80;;
8735;SDS011;4404;49.308;12.178;2023-04-26T07:24:36;0.90;;;0.90;;
8735;SDS011;4404;49.308;12.178;2023-04-26T07:26:39;0.90;;;0.90;;
8735;SDS011;4404;49.308;12.178;2023-04-26T07:28:41;0.90;;;0.90;;
8735;SDS011;4404;49.308;12.178;2023-04-26T07:30:43;0.90;;;0.90;;
8735;SDS011;4404;49.308;12.178;2023-04-26T07:32:45;0.90;;;0.90;;
8735;SDS011;4404;49.308;12.178;2023-04-26T07:34:50;0.90;;;0.90;;
8735;SDS011;4404;49.308;12.178;2023-04-26T07:37:16;1.00;;;1.00;;
8735;SDS011;4404;49.308;12.178;2023-04-26T07:39:19;1.00;;;1.00;;
8735;SDS011;4404;49.308;12.178;2023-04-26T07:41:21;1.00;;;1.00;;
8735;SDS011;4404;49.308;12.178;2023-04-26T07:43:23;0.90;;;0.90;;
8735;SDS011;4404;49.308;12.178;2023-04-26T07:45:26;1.00;;;1.00;;
8735;SDS011;4404;49.308;12.178;2023-04-26T07:47:28;1.00;;;1.00;;
8735;SDS011;4404;49.308;12.178;2023-04-26T07:49:30;1.00;;;1.00;;
8735;SDS011;4404;49.308;12.178;2023-04-26T07:51:33;0.90;;;0.90;;
8735;SDS011;4404;49.308;12.178;2023-04-26T07:53:37;0.93;;;0.93;;
8735;SDS011;4404;49.308;12.178;2023-04-26T07:55:40;0.90;;;0.90;;
8735;SDS011;4404;49.308;12.178;2023-04-26T07:57:42;0.90;;;0.90;;
8735;SDS011;4404;49.308;12.178;2023-04-26T07:59:44;1.00;;;1.00;;
8735;SDS011;4404;49.308;12.178;2023-04-26T08:01:46;1.00;;;1.00;;
8735;SDS011;4404;49.308;12.178;2023-04-26T08:03:48;1.00;;;1.00;;
8735;SDS011;4404;49.308;12.178;2023-04-26T08:05:50;0.97;;;0.97;;
8735;SDS011;4404;49.308;12.178;2023-04-26T08:07:54;1.00;;;1.00;;
8735;SDS011;4404;49.308;12.178;2023-04-26T08:09:57;1.00;;;1.00;;
8735;SDS011;4404;49.308;12.178;2023-04-26T08:11:59;1.00;;;1.00;;
8735;SDS011;4404;49.308;12.178;2023-04-26T08:14:05;1.00;;;1.00;;
8735;SDS011;4404;49.308;12.178;2023-04-26T08:16:07;1.10;;;1.10;;
8735;SDS011;4404;49.308;12.178;2023-04-26T08:18:09;1.00;;;1.00;;
8735;SDS011;4404;49.308;12.178;2023-04-26T08:20:11;1.00;;;1.00;;
8735;SDS011;4404;49.308;12.178;2023-04-26T08:22:13;1.00;;;1.00;;
8735;SDS011;4404;49.308;12.178;2023-04-26T08:24:15;0.90;;;0.90;;
8735;SDS011;4404;49.308;12.178;2023-04-26T08:26:19;0.93;;;0.93;;
8735;SDS011;4404;49.308;12.178;2023-04-26T08:28:21;0.90;;;0.90;;
8735;SDS011;4404;49.308;12.178;2023-04-26T08:30:23;0.90;;;0.90;;
8735;SDS011;4404;49.308;12.178;2023-04-26T08:32:25;0.90;;;0.90;;
8735;SDS011;4404;49.308;12.178;2023-04-26T08:34:27;0.90;;;0.90;;
8735;SDS011;4404;49.308;12.178;2023-04-26T08:36:29;0.90;;;0.90;;
8735;SDS011;4404;49.308;12.178;2023-04-26T08:38:32;0.90;;;0.90;;
8735;SDS011;4404;49.308;12.178;2023-04-26T08:40:34;0.90;;;0.90;;
8735;SDS011;4404;49.308;12.178;2023-04-26T08:42:39;0.90;;;0.90;;
8735;SDS011;4404;49.308;12.178;2023-04-26T08:44:43;0.90;;;0.90;;
8735;SDS011;4404;49.308;12.178;2023-04-26T08:46:48;0.90;;;0.90;;
8735;SDS011;4404;49.308;12.178;2023-04-26T08:49:00;1.00;;;1.00;;
8735;SDS011;4404;49.308;12.178;2023-04-26T08:51:16;0.90;;;0.90;;
8735;SDS011;4404;49.308;12.178;2023-04-26T08:53:19;0.90;;;0.90;;
8735;SDS011;4404;49.308;12.178;2023-04-26T08:55:21;0.90;;;0.90;;
8735;SDS011;4404;49.308;12.178;2023-04-26T08:57:24;0.90;;;0.90;;
8735;SDS011;4404;49.308;12.178;2023-04-26T08:59:29;0.90;;;0.90;;
8735;SDS011;4404;49.308;12.178;2023-04-26T09:01:33;0.90;;;0.90;;
8735;SDS011;4404;49.308;12.178;2023-04-26T09:03:35;0.90;;;0.90;;
8735;SDS011;4404;49.308;12.178;2023-04-26T09:05:38;0.90;;;0.90;;
8735;SDS011;4404;49.308;12.178;2023-04-26T09:07:43;0.90;;;0.90;;
8735;SDS011;4404;49.308;12.178;2023-04-26T09:09:47;0.90;;;0.90;;
8735;SDS011;4404;49.308;12.178;2023-04-26T09:11:51;0.90;;;0.90;;
8735;SDS011;4404;49.308;12.178;2023-04-26T09:13:55;0.93;;;0.93;;
8735;SDS011;4404;49.308;12.178;2023-04-26T09:15:59;0.90;;;0.90;;
8735;SDS011;4404;49.308;12.178;2023-04-26T09:18:17;1.00;;;1.00;;
8735;SDS011;4404;49.308;12.178;2023-04-26T09:20:22;0.90;;;0.90;;
8735;SDS011;4404;49.308;12.178;2023-04-26T09:22:27;0.90;;;0.90;;
8735;SDS011;4404;49.308;12.178;2023-04-26T09:24:44;0.90;;;0.90;;
8735;SDS011;4404;49.308;12.178;2023-04-26T09:26:51;0.90;;;0.90;;
8735;SDS011;4404;49.308;12.178;2023-04-26T09:29:12;0.90;;;0.90;;
8735;SDS011;4404;49.308;12.178;2023-04-26T09:31:35;0.90;;;0.90;;
8735;SDS011;4404;49.308;12.178;2023-04-26T09:36:09;0.90;;;0.90;;
8735;SDS011;4404;49.308;12.178;2023-04-26T09:38:12;0.90;;;0.90;;
8735;SDS011;4404;49.308;12.178;2023-04-26T09:40:17;0.90;;;0.90;;
8735;SDS011;4404;49.308;12.178;2023-04-26T09:42:19;0.90;;;0.90;;
8735;SDS011;4404;49.308;12.178;2023-04-26T09:44:21;0.87;;;0.87;;
8735;SDS011;4404;49.308;12.178;2023-04-26T09:46:26;0.90;;;0.90;;
8735;SDS011;4404;49.308;12.178;2023-04-26T09:48:28;0.80;;;0.80;;
8735;SDS011;4404;49.308;12.178;2023-04-26T09:50:33;0.90;;;0.90;;
8735;SDS011;4404;49.308;12.178;2023-04-26T09:52:41;0.90;;;0.90;;
8735;SDS011;4404;49.308;12.178;2023-04-26T09:54:44;0.90;;;0.90;;
8735;SDS011;4404;49.308;12.178;2023-04-26T09:56:58;0.80;;;0.80;;
8735;SDS011;4404;49.308;12.178;2023-04-26T09:59:00;0.90;;;0.90;;
8735;SDS011;4404;49.308;12.178;2023-04-26T10:01:05;0.90;;;0.90;;
8735;SDS011;4404;49.308;12.178;2023-04-26T10:03:09;0.90;;;0.90;;
8735;SDS011;4404;49.308;12.178;2023-04-26T10:05:13;1.00;;;1.00;;
8735;SDS011;4404;49.308;12.178;2023-04-26T10:07:16;0.90;;;0.90;;
8735;SDS011;4404;49.308;12.178;2023-04-26T10:09:19;0.90;;;0.90;;
8735;SDS011;4404;49.308;12.178;2023-04-26T10:11:22;0.90;;;0.90;;
8735;SDS011;4404;49.308;12.178;2023-04-26T10:13:25;0.90;;;0.90;;
8735;SDS011;4404;49.308;12.178;2023-04-26T10:15:27;0.80;;;0.80;;
8735;SDS011;4404;49.308;12.178;2023-04-26T10:17:30;0.90;;;0.90;;
8735;SDS011;4404;49.308;12.178;2023-04-26T10:19:34;0.90;;;0.90;;
8735;SDS011;4404;49.308;12.178;2023-04-26T10:21:45;0.80;;;0.80;;
8735;SDS011;4404;49.308;12.178;2023-04-26T10:23:49;0.80;;;0.80;;
8735;SDS011;4404;49.308;12.178;2023-04-26T10:25:52;0.80;;;0.80;;
8735;SDS011;4404;49.308;12.178;2023-04-26T10:27:59;0.90;;;0.90;;
8735;SDS011;4404;49.308;12.178;2023-04-26T10:30:16;0.80;;;0.80;;
8735;SDS011;4404;49.308;12.178;2023-04-26T10:32:23;0.80;;;0.80;;
8735;SDS011;4404;49.308;12.178;2023-04-26T10:34:25;0.80;;;0.80;;
8735;SDS011;4404;49.308;12.178;2023-04-26T10:36:28;0.90;;;0.90;;
8735;SDS011;4404;49.308;12.178;2023-04-26T10:38:31;0.80;;;0.80;;
8735;SDS011;4404;49.308;12.178;2023-04-26T10:40:35;0.90;;;0.90;;
8735;SDS011;4404;49.308;12.178;2023-04-26T10:42:39;0.90;;;0.90;;
8735;SDS011;4404;49.308;12.178;2023-04-26T10:44:41;0.90;;;0.90;;
8735;SDS011;4404;49.308;12.178;2023-04-26T10:46:48;0.90;;;0.90;;
8735;SDS011;4404;49.308;12.178;2023-04-26T10:48:51;0.90;;;0.90;;
8735;SDS011;4404;49.308;12.178;2023-04-26T10:51:09;0.90;;;0.90;;
8735;SDS011;4404;49.308;12.178;2023-04-26T10:53:13;1.00;;;1.00;;
8735;SDS011;4404;49.308;12.178;2023-04-26T10:55:29;1.00;;;1.00;;
8735;SDS011;4404;49.308;12.178;2023-04-26T10:57:45;0.90;;;0.90;;
8735;SDS011;4404;49.308;12.178;2023-04-26T11:04:49;0.90;;;0.90;;
8735;SDS011;4404;49.308;12.178;2023-04-26T11:06:52;0.90;;;0.90;;
8735;SDS011;4404;49.308;12.178;2023-04-26T11:08:58;0.80;;;0.80;;
8735;SDS011;4404;49.308;12.178;2023-04-26T11:11:04;0.97;;;0.97;;
8735;SDS011;4404;49.308;12.178;2023-04-26T11:13:11;1.03;;;1.03;;
8735;SDS011;4404;49.308;12.178;2023-04-26T11:15:13;1.00;;;1.00;;
8735;SDS011;4404;49.308;12.178;2023-04-26T11:17:15;0.90;;;0.90;;
8735;SDS011;4404;49.308;12.178;2023-04-26T11:19:17;1.00;;;1.00;;
8735;SDS011;4404;49.308;12.178;2023-04-26T11:21:20;1.00;;;1.00;;
8735;SDS011;4404;49.308;12.178;2023-04-26T11:23:22;0.90;;;0.90;;
8735;SDS011;4404;49.308;12.178;2023-04-26T11:25:26;0.80;;;0.80;;
8735;SDS011;4404;49.308;12.178;2023-04-26T11:27:29;0.80;;;0.80;;
8735;SDS011;4404;49.308;12.178;2023-04-26T11:29:31;0.90;;;0.90;;
8735;SDS011;4404;49.308;12.178;2023-04-26T11:31:33;0.90;;;0.90;;
8735;SDS011;4404;49.308;12.178;2023-04-26T11:33:35;0.90;;;0.90;;
8735;SDS011;4404;49.308;12.178;2023-04-26T11:35:37;0.90;;;0.90;;
8735;SDS011;4404;49.308;12.178;2023-04-26T11:37:39;0.90;;;0.90;;
8735;SDS011;4404;49.308;12.178;2023-04-26T11:39:41;0.90;;;0.90;;
8735;SDS011;4404;49.308;12.178;2023-04-26T11:41:47;0.90;;;0.90;;
8735;SDS011;4404;49.308;12.178;2023-04-26T11:43:49;0.90;;;0.90;;
8735;SDS011;4404;49.308;12.178;2023-04-26T11:45:57;0.90;;;0.90;;
8735;SDS011;4404;49.308;12.178;2023-04-26T11:48:00;1.00;;;1.00;;
8735;SDS011;4404;49.308;12.178;2023-04-26T11:50:05;1.00;;;1.00;;
8735;SDS011;4404;49.308;12.178;2023-04-26T11:52:09;1.00;;;1.00;;
8735;SDS011;4404;49.308;12.178;2023-04-26T11:54:11;0.90;;;0.90;;
8735;SDS011;4404;49.308;12.178;2023-04-26T11:56:29;0.90;;;0.90;;
8735;SDS011;4404;49.308;12.178;2023-04-26T11:58:32;0.90;;;0.90;;
8735;SDS011;4404;49.308;12.178;2023-04-26T12:00:34;0.80;;;0.80;;
8735;SDS011;4404;49.308;12.178;2023-04-26T12:02:37;0.80;;;0.80;;
8735;SDS011;4404;49.308;12.178;2023-04-26T12:04:40;0.90;;;0.90;;
8735;SDS011;4404;49.308;12.178;2023-04-26T12:06:43;0.90;;;0.90;;
8735;SDS011;4404;49.308;12.178;2023-04-26T12:08:48;0.90;;;0.90;;
8735;SDS011;4404;49.308;12.178;2023-04-26T12:10:51;0.80;;;0.80;;
8735;SDS011;4404;49.308;12.178;2023-04-26T12:12:54;0.87;;;0.87;;
8735;SDS011;4404;49.308;12.178;2023-04-26T12:15:00;0.90;;;0.90;;
8735;SDS011;4404;49.308;12.178;2023-04-26T12:17:13;1.10;;;1.10;;
8735;SDS011;4404;49.308;12.178;2023-04-26T12:19:16;0.90;;;0.90;;
8735;SDS011;4404;49.308;12.178;2023-04-26T12:21:23;0.90;;;0.90;;
8735;SDS011;4404;49.308;12.178;2023-04-26T12:23:26;0.80;;;0.80;;
8735;SDS011;4404;49.308;12.178;2023-04-26T12:25:40;0.80;;;0.80;;
8735;SDS011;4404;49.308;12.178;2023-04-26T12:27:52;0.80;;;0.80;;
8735;SDS011;4404;49.308;12.178;2023-04-26T12:29:55;0.80;;;0.80;;
8735;SDS011;4404;49.308;12.178;2023-04-26T12:31:59;0.80;;;0.80;;
8735;SDS011;4404;49.308;12.178;2023-04-26T12:34:02;0.90;;;0.90;;
8735;SDS011;4404;49.308;12.178;2023-04-26T12:36:07;0.80;;;0.80;;
8735;SDS011;4404;49.308;12.178;2023-04-26T12:38:11;0.90;;;0.90;;
8735;SDS011;4404;49.308;12.178;2023-04-26T12:40:14;1.00;;;1.00;;
8735;SDS011;4404;49.308;12.178;2023-04-26T12:42:18;0.90;;;0.90;;
8735;SDS011;4404;49.308;12.178;2023-04-26T12:44:20;0.90;;;0.90;;
8735;SDS011;4404;49.308;12.178;2023-04-26T12:46:22;0.90;;;0.90;;
8735;SDS011;4404;49.308;12.178;2023-04-26T12:48:26;0.87;;;0.87;;
8735;SDS011;4404;49.308;12.178;2023-04-26T12:50:28;0.80;;;0.80;;
8735;SDS011;4404;49.308;12.178;2023-04-26T12:52:31;0.80;;;0.80;;
8735;SDS011;4404;49.308;12.178;2023-04-26T12:54:33;0.80;;;0.80;;
8735;SDS011;4404;49.308;12.178;2023-04-26T12:56:35;0.80;;;0.80;;
8735;SDS011;4404;49.308;12.178;2023-04-26T12:58:42;0.80;;;0.80;;
8735;SDS011;4404;49.308;12.178;2023-04-26T13:00:44;0.90;;;0.90;;
8735;SDS011;4404;49.308;12.178;2023-04-26T13:02:46;0.90;;;0.90;;
8735;SDS011;4404;49.308;12.178;2023-04-26T13:04:50;0.90;;;0.90;;
8735;SDS011;4404;49.308;12.178;2023-04-26T13:06:52;1.00;;;1.00;;
8735;SDS011;4404;49.308;12.178;2023-04-26T13:08:54;0.80;;;0.80;;
8735;SDS011;4404;49.308;12.178;2023-04-26T13:10:57;0.90;;;0.90;;
8735;SDS011;4404;49.308;12.178;2023-04-26T13:12:59;0.90;;;0.90;;
8735;SDS011;4404;49.308;12.178;2023-04-26T13:15:01;0.90;;;0.90;;
8735;SDS011;4404;49.308;12.178;2023-04-26T13:17:05;0.80;;;0.80;;
8735;SDS011;4404;49.308;12.178;2023-04-26T13:19:08;1.00;;;1.00;;
8735;SDS011;4404;49.308;12.178;2023-04-26T13:21:11;0.90;;;0.90;;
8735;SDS011;4404;49.308;12.178;2023-04-26T13:23:14;0.90;;;0.90;;
8735;SDS011;4404;49.308;12.178;2023-04-26T13:25:16;0.80;;;0.80;;
8735;SDS011;4404;49.308;12.178;2023-04-26T13:27:19;0.80;;;0.80;;
8735;SDS011;4404;49.308;12.178;2023-04-26T13:29:21;0.90;;;0.90;;
8735;SDS011;4404;49.308;12.178;2023-04-26T13:31:23;0.90;;;0.90;;
8735;SDS011;4404;49.308;12.178;2023-04-26T13:33:25;0.80;;;0.80;;
8735;SDS011;4404;49.308;12.178;2023-04-26T13:35:27;0.80;;;0.80;;
8735;SDS011;4404;49.308;12.178;2023-04-26T13:37:31;0.80;;;0.80;;
8735;SDS011;4404;49.308;12.178;2023-04-26T13:39:33;0.80;;;0.80;;
8735;SDS011;4404;49.308;12.178;2023-04-26T13:41:35;0.80;;;0.80;;
8735;SDS011;4404;49.308;12.178;2023-04-26T13:43:37;0.80;;;0.80;;
8735;SDS011;4404;49.308;12.178;2023-04-26T13:45:40;0.80;;;0.80;;
8735;SDS011;4404;49.308;12.178;2023-04-26T13:47:42;0.80;;;0.80;;
8735;SDS011;4404;49.308;12.178;2023-04-26T13:49:44;0.80;;;0.80;;
8735;SDS011;4404;49.308;12.178;2023-04-26T13:51:46;0.70;;;0.70;;
8735;SDS011;4404;49.308;12.178;2023-04-26T13:53:49;0.80;;;0.80;;
8735;SDS011;4404;49.308;12.178;2023-04-26T13:55:51;0.70;;;0.70;;
8735;SDS011;4404;49.308;12.178;2023-04-26T13:57:53;0.80;;;0.80;;
8735;SDS011;4404;49.308;12.178;2023-04-26T13:59:56;0.80;;;0.80;;
8735;SDS011;4404;49.308;12.178;2023-04-26T14:01:58;0.80;;;0.80;;
8735;SDS011;4404;49.308;12.178;2023-04-26T14:04:00;0.80;;;0.80;;
8735;SDS011;4404;49.308;12.178;2023-04-26T14:06:03;0.80;;;0.80;;
8735;SDS011;4404;49.308;12.178;2023-04-26T14:08:06;0.83;;;0.83;;
8735;SDS011;4404;49.308;12.178;2023-04-26T14:10:10;0.90;;;0.90;;
8735;SDS011;4404;49.308;12.178;2023-04-26T14:12:12;0.90;;;0.90;;
8735;SDS011;4404;49.308;12.178;2023-04-26T14:14:15;0.80;;;0.80;;
8735;SDS011;4404;49.308;12.178;2023-04-26T14:16:17;0.80;;;0.80;;
8735;SDS011;4404;49.308;12.178;2023-04-26T14:18:20;0.90;;;0.90;;
8735;SDS011;4404;49.308;12.178;2023-04-26T14:20:22;0.90;;;0.90;;
8735;SDS011;4404;49.308;12.178;2023-04-26T14:22:25;0.80;;;0.80;;
8735;SDS011;4404;49.308;12.178;2023-04-26T14:24:27;0.70;;;0.70;;
8735;SDS011;4404;49.308;12.178;2023-04-26T14:26:31;0.80;;;0.80;;
8735;SDS011;4404;49.308;12.178;2023-04-26T14:28:33;0.80;;;0.80;;
8735;SDS011;4404;49.308;12.178;2023-04-26T14:30:36;0.80;;;0.80;;
8735;SDS011;4404;49.308;12.178;2023-04-26T14:32:38;0.80;;;0.80;;
8735;SDS011;4404;49.308;12.178;2023-04-26T14:34:40;0.80;;;0.80;;
8735;SDS011;4404;49.308;12.178;2023-04-26T14:36:42;0.80;;;0.80;;
8735;SDS011;4404;49.308;12.178;2023-04-26T14:38:44;0.80;;;0.80;;
8735;SDS011;4404;49.308;12.178;2023-04-26T14:40:47;0.80;;;0.80;;
8735;SDS011;4404;49.308;12.178;2023-04-26T14:42:50;0.70;;;0.70;;
8735;SDS011;4404;49.308;12.178;2023-04-26T14:44:52;0.80;;;0.80;;
8735;SDS011;4404;49.308;12.178;2023-04-26T14:46:54;0.80;;;0.80;;
8735;SDS011;4404;49.308;12.178;2023-04-26T14:48:56;0.80;;;0.80;;
8735;SDS011;4404;49.308;12.178;2023-04-26T14:50:58;0.90;;;0.90;;
8735;SDS011;4404;49.308;12.178;2023-04-26T14:53:01;0.80;;;0.80;;
8735;SDS011;4404;49.308;12.178;2023-04-26T14:55:04;0.90;;;0.90;;
8735;SDS011;4404;49.308;12.178;2023-04-26T14:57:07;0.80;;;0.80;;
8735;SDS011;4404;49.308;12.178;2023-04-26T14:59:11;0.90;;;0.90;;
8735;SDS011;4404;49.308;12.178;2023-04-26T15:01:13;0.87;;;0.87;;
8735;SDS011;4404;49.308;12.178;2023-04-26T15:03:15;0.80;;;0.80;;
8735;SDS011;4404;49.308;12.178;2023-04-26T15:05:17;0.80;;;0.80;;
8735;SDS011;4404;49.308;12.178;2023-04-26T15:07:20;0.90;;;0.90;;
8735;SDS011;4404;49.308;12.178;2023-04-26T15:09:22;0.70;;;0.70;;
8735;SDS011;4404;49.308;12.178;2023-04-26T15:11:24;0.80;;;0.80;;
8735;SDS011;4404;49.308;12.178;2023-04-26T15:13:27;0.80;;;0.80;;
8735;SDS011;4404;49.308;12.178;2023-04-26T15:15:30;0.80;;;0.80;;
8735;SDS011;4404;49.308;12.178;2023-04-26T15:17:32;0.80;;;0.80;;
8735;SDS011;4404;49.308;12.178;2023-04-26T15:19:34;0.80;;;0.80;;
8735;SDS011;4404;49.308;12.178;2023-04-26T15:21:36;0.70;;;0.70;;
8735;SDS011;4404;49.308;12.178;2023-04-26T15:23:39;0.80;;;0.80;;
8735;SDS011;4404;49.308;12.178;2023-04-26T15:25:41;0.80;;;0.80;;
8735;SDS011;4404;49.308;12.178;2023-04-26T15:27:43;0.80;;;0.80;;
8735;SDS011;4404;49.308;12.178;2023-04-26T15:29:46;0.80;;;0.80;;
8735;SDS011;4404;49.308;12.178;2023-04-26T15:31:49;0.70;;;0.70;;
8735;SDS011;4404;49.308;12.178;2023-04-26T15:33:52;0.80;;;0.80;;
8735;SDS011;4404;49.308;12.178;2023-04-26T15:35:55;0.80;;;0.80;;
8735;SDS011;4404;49.308;12.178;2023-04-26T15:37:57;0.80;;;0.80;;
8735;SDS011;4404;49.308;12.178;2023-04-26T15:40:00;0.80;;;0.80;;
8735;SDS011;4404;49.308;12.178;2023-04-26T15:42:03;0.80;;;0.80;;
8735;SDS011;4404;49.308;12.178;2023-04-26T15:44:07;0.87;;;0.87;;
8735;SDS011;4404;49.308;12.178;2023-04-26T15:46:11;0.90;;;0.90;;
8735;SDS011;4404;49.308;12.178;2023-04-26T15:48:15;0.90;;;0.90;;
8735;SDS011;4404;49.308;12.178;2023-04-26T15:50:18;0.90;;;0.90;;
8735;SDS011;4404;49.308;12.178;2023-04-26T15:52:20;0.90;;;0.90;;
8735;SDS011;4404;49.308;12.178;2023-04-26T15:54:22;0.90;;;0.90;;
8735;SDS011;4404;49.308;12.178;2023-04-26T15:56:25;0.80;;;0.80;;
8735;SDS011;4404;49.308;12.178;2023-04-26T15:58:27;0.80;;;0.80;;
8735;SDS011;4404;49.308;12.178;2023-04-26T16:00:29;0.80;;;0.80;;
8735;SDS011;4404;49.308;12.178;2023-04-26T16:02:31;0.80;;;0.80;;
8735;SDS011;4404;49.308;12.178;2023-04-26T16:04:35;0.80;;;0.80;;
8735;SDS011;4404;49.308;12.178;2023-04-26T16:06:37;0.80;;;0.80;;
8735;SDS011;4404;49.308;12.178;2023-04-26T16:08:39;0.80;;;0.80;;
8735;SDS011;4404;49.308;12.178;2023-04-26T16:10:41;0.80;;;0.80;;
8735;SDS011;4404;49.308;12.178;2023-04-26T16:12:43;0.90;;;0.90;;
8735;SDS011;4404;49.308;12.178;2023-04-26T16:14:45;0.90;;;0.90;;
8735;SDS011;4404;49.308;12.178;2023-04-26T16:16:47;0.90;;;0.90;;
8735;SDS011;4404;49.308;12.178;2023-04-26T16:18:50;0.80;;;0.80;;
8735;SDS011;4404;49.308;12.178;2023-04-26T16:20:55;0.80;;;0.80;;
8735;SDS011;4404;49.308;12.178;2023-04-26T16:23:04;0.80;;;0.80;;
8735;SDS011;4404;49.308;12.178;2023-04-26T16:25:07;0.83;;;0.83;;
8735;SDS011;4404;49.308;12.178;2023-04-26T16:27:09;0.90;;;0.90;;
8735;SDS011;4404;49.308;12.178;2023-04-26T16:29:11;0.90;;;0.90;;
8735;SDS011;4404;49.308;12.178;2023-04-26T16:31:14;0.87;;;0.87;;
8735;SDS011;4404;49.308;12.178;2023-04-26T16:33:16;0.80;;;0.80;;
8735;SDS011;4404;49.308;12.178;2023-04-26T16:35:18;0.90;;;0.90;;
8735;SDS011;4404;49.308;12.178;2023-04-26T16:37:21;0.80;;;0.80;;
8735;SDS011;4404;49.308;12.178;2023-04-26T16:39:23;0.80;;;0.80;;
8735;SDS011;4404;49.308;12.178;2023-04-26T16:41:27;0.80;;;0.80;;
8735;SDS011;4404;49.308;12.178;2023-04-26T16:43:29;0.80;;;0.80;;
8735;SDS011;4404;49.308;12.178;2023-04-26T16:45:32;0.80;;;0.80;;
8735;SDS011;4404;49.308;12.178;2023-04-26T16:47:35;0.80;;;0.80;;
8735;SDS011;4404;49.308;12.178;2023-04-26T16:49:37;0.80;;;0.80;;
8735;SDS011;4404;49.308;12.178;2023-04-26T16:51:39;0.80;;;0.80;;
8735;SDS011;4404;49.308;12.178;2023-04-26T16:53:44;0.70;;;0.70;;
8735;SDS011;4404;49.308;12.178;2023-04-26T16:55:47;0.80;;;0.80;;
8735;SDS011;4404;49.308;12.178;2023-04-26T16:57:49;0.80;;;0.80;;
8735;SDS011;4404;49.308;12.178;2023-04-26T16:59:51;0.77;;;0.77;;
8735;SDS011;4404;49.308;12.178;2023-04-26T17:01:53;0.77;;;0.77;;
8735;SDS011;4404;49.308;12.178;2023-04-26T17:03:55;0.80;;;0.80;;
8735;SDS011;4404;49.308;12.178;2023-04-26T17:05:57;0.80;;;0.80;;
8735;SDS011;4404;49.308;12.178;2023-04-26T17:08:00;0.80;;;0.80;;
8735;SDS011;4404;49.308;12.178;2023-04-26T17:10:04;0.87;;;0.87;;
8735;SDS011;4404;49.308;12.178;2023-04-26T17:12:07;0.90;;;0.90;;
8735;SDS011;4404;49.308;12.178;2023-04-26T17:14:09;0.90;;;0.90;;
8735;SDS011;4404;49.308;12.178;2023-04-26T17:16:11;1.00;;;1.00;;
8735;SDS011;4404;49.308;12.178;2023-04-26T17:18:14;0.97;;;0.97;;
8735;SDS011;4404;49.308;12.178;2023-04-26T17:20:16;0.90;;;0.90;;
8735;SDS011;4404;49.308;12.178;2023-04-26T17:22:18;0.90;;;0.90;;
8735;SDS011;4404;49.308;12.178;2023-04-26T17:24:20;0.90;;;0.90;;
8735;SDS011;4404;49.308;12.178;2023-04-26T17:26:24;0.90;;;0.90;;
8735;SDS011;4404;49.308;12.178;2023-04-26T17:28:26;0.70;;;0.70;;
8735;SDS011;4404;49.308;12.178;2023-04-26T17:30:30;0.80;;;0.80;;
8735;SDS011;4404;49.308;12.178;2023-04-26T17:32:32;0.80;;;0.80;;
8735;SDS011;4404;49.308;12.178;2023-04-26T17:34:34;0.80;;;0.80;;
8735;SDS011;4404;49.308;12.178;2023-04-26T17:36:37;0.80;;;0.80;;
8735;SDS011;4404;49.308;12.178;2023-04-26T17:38:39;0.70;;;0.70;;
8735;SDS011;4404;49.308;12.178;2023-04-26T17:40:42;0.70;;;0.70;;
8735;SDS011;4404;49.308;12.178;2023-04-26T17:42:45;0.80;;;0.80;;
8735;SDS011;4404;49.308;12.178;2023-04-26T17:44:47;0.70;;;0.70;;
8735;SDS011;4404;49.308;12.178;2023-04-26T17:46:49;0.80;;;0.80;;
8735;SDS011;4404;49.308;12.178;2023-04-26T17:48:51;0.80;;;0.80;;
8735;SDS011;4404;49.308;12.178;2023-04-26T17:50:54;0.80;;;0.80;;
8735;SDS011;4404;49.308;12.178;2023-04-26T17:52:57;0.80;;;0.80;;
8735;SDS011;4404;49.308;12.178;2023-04-26T17:54:59;0.80;;;0.80;;
8735;SDS011;4404;49.308;12.178;2023-04-26T17:57:01;0.80;;;0.80;;
8735;SDS011;4404;49.308;12.178;2023-04-26T17:59:05;0.90;;;0.90;;
8735;SDS011;4404;49.308;12.178;2023-04-26T18:01:07;0.97;;;0.97;;
8735;SDS011;4404;49.308;12.178;2023-04-26T18:03:09;1.00;;;1.00;;
8735;SDS011;4404;49.308;12.178;2023-04-26T18:05:12;0.90;;;0.90;;
8735;SDS011;4404;49.308;12.178;2023-04-26T18:07:15;0.90;;;0.90;;
8735;SDS011;4404;49.308;12.178;2023-04-26T18:09:17;0.90;;;0.90;;
